Time;durP1;ratioP1;P1;durP2;ratioP2;P2;SDS_P1;SDS_P2;PMS_P1;PMS_P2;Temp;Humidity;BMP_temperature;BMP_pressure;BME280_temperature;BME280_humidity;BME280_pressure;Samples;Min_cycle;Max_cycle;Signal;HPM_P1;HPM_P2
2022/03/21 00:14:11;;;;;;;26.42;13.93;;;;;;;10.94;40.06;101335.94;4968202;28;20545;-82
2022/03/21 00:17:28;;;;;;;22.40;13.77;;;;;;;10.96;40.67;101342.84;4944294;28;20038;-81
2022/03/21 00:20:46;;;;;;;27.58;15.25;;;;;;;10.91;41.48;101342.31;4911641;28;20042;-81
2022/03/21 00:24:03;;;;;;;28.15;14.52;;;;;;;10.90;41.04;101347.75;4945344;28;20034;-81
2022/03/21 00:26:30;;;;;;;30.02;14.23;;;;;;;10.91;41.50;101344.13;4972148;28;20610;-82
2022/03/21 00:28:57;;;;;;;26.35;14.35;;;;;;;10.90;41.43;101345.94;5018055;28;20552;-82
2022/03/21 00:31:23;;;;;;;28.35;14.35;;;;;;;10.88;41.20;101350.50;4994834;28;20053;-81
2022/03/21 00:33:50;;;;;;;23.77;14.20;;;;;;;10.88;41.93;101339.00;4979105;28;20046;-81
2022/03/21 00:36:18;;;;;;;24.80;13.30;;;;;;;10.87;41.89;101346.13;4974561;28;20057;-82
2022/03/21 00:39:05;;;;;;;26.25;14.18;;;;;;;10.80;41.38;101335.06;5013700;28;20041;-81
2022/03/21 00:41:32;;;;;;;24.77;14.05;;;;;;;10.77;41.60;101342.38;5004160;28;20045;-82
2022/03/21 00:43:59;;;;;;;26.77;14.98;;;;;;;10.75;42.27;101342.47;5003542;28;20084;-82
2022/03/21 00:46:26;;;;;;;25.35;13.50;;;;;;;10.72;41.28;101345.31;4986953;28;20095;-82
2022/03/21 00:48:53;;;;;;;26.33;13.95;;;;;;;10.73;41.07;101341.72;4984429;28;20100;-82
2022/03/21 00:51:20;;;;;;;24.27;13.75;;;;;;;10.74;40.13;101346.09;4953007;28;20054;-82
2022/03/21 00:53:46;;;;;;;24.67;13.55;;;;;;;10.73;40.17;101341.72;4997746;28;20501;-81
2022/03/21 00:56:18;;;;;;;27.48;13.60;;;;;;;10.71;39.67;101353.38;5008687;28;20050;-81
2022/03/21 00:58:45;;;;;;;22.83;13.60;;;;;;;10.72;40.72;101352.47;4996075;28;20057;-82
2022/03/21 01:01:11;;;;;;;30.30;14.32;;;;;;;10.72;40.87;101347.13;4973768;28;20046;-82
2022/03/21 01:03:39;;;;;;;24.60;13.27;;;;;;;10.68;41.44;101354.44;4977909;28;20057;-81
2022/03/21 01:06:06;;;;;;;26.00;13.27;;;;;;;10.64;41.11;101345.81;5008028;28;20612;-82
2022/03/21 01:08:32;;;;;;;29.73;13.77;;;;;;;10.64;40.88;101351.13;4986240;28;20501;-82
2022/03/21 01:10:59;;;;;;;24.08;13.38;;;;;;;10.63;41.20;101357.41;4990418;28;20046;-81
2022/03/21 01:13:26;;;;;;;25.17;13.43;;;;;;;10.64;41.05;101352.94;5011863;28;20057;-81
2022/03/21 01:15:52;;;;;;;24.55;12.60;;;;;;;10.63;40.88;101365.38;4991318;28;20129;-82
2022/03/21 01:18:21;;;;;;;27.17;13.95;;;;;;;10.61;41.21;101361.97;4960812;28;20370;-82
2022/03/21 01:20:48;;;;;;;24.35;13.68;;;;;;;10.58;41.50;101370.16;5006496;28;20046;-82
2022/03/21 01:23:15;;;;;;;21.73;13.10;;;;;;;10.57;40.99;101360.44;4982472;28;20081;-82
2022/03/21 01:25:42;;;;;;;22.27;12.23;;;;;;;10.57;41.25;101371.06;4992532;28;20107;-81
2022/03/21 01:28:08;;;;;;;22.73;12.70;;;;;;;10.56;41.15;101374.69;5002627;28;20046;-81
2022/03/21 01:30:36;;;;;;;21.65;12.40;;;;;;;10.55;41.55;101370.31;4988702;28;20092;-82
2022/03/21 01:33:03;;;;;;;20.52;11.90;;;;;;;10.53;41.27;101376.69;4987083;28;20045;-81
2022/03/21 01:35:30;;;;;;;23.23;12.68;;;;;;;10.50;41.13;101372.41;4991875;28;20120;-82
2022/03/21 01:37:57;;;;;;;24.30;12.88;;;;;;;10.47;41.25;101374.41;4994866;28;20513;-82
2022/03/21 01:40:23;;;;;;;22.35;13.05;;;;;;;10.44;41.38;101378.13;4961025;28;20049;-82
2022/03/21 01:42:50;;;;;;;22.83;13.15;;;;;;;10.42;41.73;101372.06;4985631;28;20037;-81
2022/03/21 01:45:17;;;;;;;20.90;12.05;;;;;;;10.40;42.03;101373.94;4985572;28;20088;-82
2022/03/21 01:47:44;;;;;;;27.83;14.13;;;;;;;10.37;41.65;101367.03;4975086;28;20042;-82
2022/03/21 01:50:13;;;;;;;23.70;13.38;;;;;;;10.37;42.13;101372.34;4986626;28;20522;-82
2022/03/21 01:52:42;;;;;;;22.60;12.27;;;;;;;10.34;41.93;101375.19;5015902;28;20113;-82
2022/03/21 01:57:54;;;;;;;21.92;12.55;;;;;;;10.29;41.92;101379.09;4992942;28;20049;-81
2022/03/21 02:00:21;;;;;;;22.42;12.93;;;;;;;10.28;41.58;101372.94;4972907;28;20050;-81
2022/03/21 02:02:50;;;;;;;21.60;12.57;;;;;;;10.27;41.99;101375.63;4971063;28;20048;-82
2022/03/21 02:05:17;;;;;;;24.63;12.63;;;;;;;10.26;41.74;101382.75;4983401;28;20053;-81
2022/03/21 02:07:44;;;;;;;22.25;12.18;;;;;;;10.24;41.88;101382.00;4988572;28;20100;-81
2022/03/21 02:10:11;;;;;;;22.45;12.70;;;;;;;10.22;41.92;101375.91;4963834;28;20061;-81
2022/03/21 02:12:38;;;;;;;26.05;13.90;;;;;;;10.20;42.04;101383.13;4988104;28;20475;-82
2022/03/21 02:15:05;;;;;;;20.58;12.65;;;;;;;10.18;41.74;101385.03;4966050;28;20082;-81
2022/03/21 02:17:35;;;;;;;22.55;12.38;;;;;;;10.12;42.26;101380.09;5004478;28;20041;-81
2022/03/21 02:20:02;;;;;;;24.55;12.98;;;;;;;10.08;41.86;101383.91;4980314;28;20046;-82
2022/03/21 02:22:54;;;;;;;20.50;12.00;;;;;;;9.91;42.40;101371.66;5004025;28;20441;-82
2022/03/21 02:25:27;;;;;;;23.83;13.45;;;;;;;9.94;42.58;101382.06;4895486;28;20497;-82
2022/03/21 02:27:56;;;;;;;22.50;11.88;;;;;;;9.96;42.53;101375.72;5022081;28;20046;-82
2022/03/21 02:30:25;;;;;;;20.63;12.48;;;;;;;9.96;42.41;101380.19;5001712;28;20053;-82
2022/03/21 02:32:52;;;;;;;22.77;12.73;;;;;;;9.94;42.57;101376.78;4968790;28;20038;-82
2022/03/21 02:35:20;;;;;;;23.67;12.82;;;;;;;9.93;42.41;101378.56;5007240;28;20132;-82
2022/03/21 02:37:48;;;;;;;19.63;12.10;;;;;;;9.92;42.18;101381.31;4988054;28;20042;-81
2022/03/21 02:40:16;;;;;;;23.65;12.80;;;;;;;9.91;42.10;101375.16;5007100;28;20049;-82
2022/03/21 02:42:44;;;;;;;22.67;13.05;;;;;;;9.86;42.16;101385.19;4969337;28;20042;-82
2022/03/21 02:45:11;;;;;;;23.77;12.75;;;;;;;9.83;41.54;101372.13;4996636;28;20052;-81
2022/03/21 02:47:37;;;;;;;25.30;13.38;;;;;;;9.79;42.59;101370.59;4979801;28;20433;-82
2022/03/21 02:50:08;;;;;;;22.17;12.27;;;;;;;9.75;42.31;101374.41;4979272;28;20061;-81
2022/03/21 02:52:36;;;;;;;23.92;13.80;;;;;;;9.75;43.16;101377.06;4994978;28;20046;-81
2022/03/21 02:55:04;;;;;;;24.83;12.82;;;;;;;9.73;43.10;101371.81;4967802;28;20038;-81
2022/03/21 02:57:32;;;;;;;23.10;11.68;;;;;;;9.74;42.46;101375.31;4980332;28;20054;-81
2022/03/21 02:59:59;;;;;;;25.67;12.18;;;;;;;9.73;42.69;101363.88;4991145;28;20038;-82
2022/03/21 03:02:26;;;;;;;23.83;11.95;;;;;;;9.71;42.67;101371.06;5017630;28;20050;-81
2022/03/21 03:04:53;;;;;;;25.00;13.18;;;;;;;9.69;42.79;101382.72;4999362;28;20052;-82
2022/03/21 03:07:20;;;;;;;23.40;12.32;;;;;;;9.67;43.46;101380.16;5027330;28;20045;-82
2022/03/21 03:09:46;;;;;;;19.27;11.30;;;;;;;9.67;42.40;101372.22;4995002;28;20041;-82
2022/03/21 03:12:13;;;;;;;23.05;12.07;;;;;;;9.62;42.28;101382.25;4989000;28;20125;-82
2022/03/21 03:14:40;;;;;;;22.15;12.98;;;;;;;9.59;42.88;101382.41;4993006;28;20049;-82
2022/03/21 03:17:06;;;;;;;22.15;12.38;;;;;;;9.56;42.98;101379.94;4983464;28;20042;-82
2022/03/21 03:19:33;;;;;;;21.40;12.18;;;;;;;9.55;43.28;101383.53;4989063;28;20049;-82
2022/03/21 03:22:26;;;;;;;20.95;11.65;;;;;;;9.40;43.05;101387.09;4953222;28;20102;-81
2022/03/21 03:24:53;;;;;;;20.35;11.80;;;;;;;9.49;42.80;101390.06;4983523;28;20054;-82
2022/03/21 03:27:20;;;;;;;21.92;11.73;;;;;;;9.47;43.27;101393.75;4993567;28;20056;-82
2022/03/21 03:29:47;;;;;;;19.67;11.07;;;;;;;9.47;43.13;101396.41;5013935;28;20057;-82
2022/03/21 03:32:13;;;;;;;19.02;11.15;;;;;;;9.45;43.45;101399.13;5017312;28;20489;-82
2022/03/21 03:34:40;;;;;;;23.90;11.80;;;;;;;9.44;43.12;101397.44;5020817;28;20405;-82
2022/03/21 03:37:07;;;;;;;18.25;10.85;;;;;;;9.43;43.32;101392.22;4972853;28;20046;-82
2022/03/21 03:39:33;;;;;;;18.58;11.18;;;;;;;9.39;42.86;101390.69;4998750;28;20059;-82
2022/03/21 03:42:00;;;;;;;20.83;11.38;;;;;;;9.38;42.65;101395.13;5003297;28;20088;-82
2022/03/21 03:44:27;;;;;;;20.88;12.18;;;;;;;9.35;43.24;101398.81;4978069;28;20041;-82
2022/03/21 03:46:54;;;;;;;20.35;11.82;;;;;;;9.33;43.31;101391.91;4993835;28;20041;-82
2022/03/21 03:49:23;;;;;;;19.90;10.77;;;;;;;9.31;43.30;101393.78;4978275;28;20077;-82
2022/03/21 03:55:31;;;;;;;18.73;11.55;;;;;;;9.26;42.62;101402.03;4939881;28;20042;-82
2022/03/21 03:57:58;;;;;;;24.63;11.98;;;;;;;9.27;42.98;101398.41;4994154;28;20057;-82
2022/03/21 04:00:25;;;;;;;19.17;11.32;;;;;;;9.27;42.36;101405.53;5017043;28;20205;-82
2022/03/21 04:05:37;;;;;;;20.63;11.20;;;;;;;9.25;43.04;101418.84;4973750;28;20046;-82
2022/03/21 04:08:04;;;;;;;19.98;11.75;;;;;;;9.21;43.63;101412.03;4961188;28;20138;-82
2022/03/21 04:10:31;;;;;;;21.33;12.13;;;;;;;9.19;43.92;101413.91;4985120;28;20042;-82
2022/03/21 04:12:58;;;;;;;20.45;11.15;;;;;;;9.17;42.83;101421.09;4993554;28;20058;-82
2022/03/21 04:15:25;;;;;;;19.85;11.93;;;;;;;9.15;42.75;101416.81;4987827;28;20046;-81
2022/03/21 04:17:53;;;;;;;20.00;11.32;;;;;;;9.16;43.35;101426.47;4980320;28;20042;-82
2022/03/21 04:20:23;;;;;;;20.25;11.48;;;;;;;9.12;43.35;101425.81;4989176;28;20508;-81
2022/03/21 04:22:49;;;;;;;22.27;11.93;;;;;;;9.10;43.15;101419.72;4968153;28;20562;-81
2022/03/21 04:25:23;;;;;;;23.77;12.27;;;;;;;9.06;43.26;101420.88;4991238;28;20041;-81
2022/03/21 04:27:50;;;;;;;20.02;11.80;;;;;;;9.09;43.19;101424.19;4987459;28;20129;-81
2022/03/21 04:30:17;;;;;;;18.08;11.52;;;;;;;9.07;43.26;101428.72;4998712;28;20046;-81
2022/03/21 04:32:44;;;;;;;19.38;11.55;;;;;;;9.07;43.31;101419.91;5012988;28;20079;-81
2022/03/21 04:35:11;;;;;;;18.33;10.38;;;;;;;9.05;43.08;101414.69;5014472;28;20073;-81
2022/03/21 04:37:38;;;;;;;19.13;10.70;;;;;;;9.05;43.34;101427.09;4969817;28;20057;-81
2022/03/21 04:40:07;;;;;;;19.63;10.93;;;;;;;9.03;43.33;101432.50;4960461;28;20427;-82
2022/03/21 04:42:37;;;;;;;18.80;10.80;;;;;;;8.99;43.55;101430.09;4976261;28;20053;-82
2022/03/21 04:45:05;;;;;;;18.73;9.93;;;;;;;9.01;43.13;101428.22;4997187;28;20404;-82
2022/03/21 04:47:32;;;;;;;19.20;11.48;;;;;;;9.01;43.04;101433.53;5001257;28;20038;-82
2022/03/21 04:49:59;;;;;;;18.77;11.32;;;;;;;9.00;43.23;101435.28;5007155;28;20084;-82
2022/03/21 04:52:26;;;;;;;21.05;10.98;;;;;;;8.99;42.90;101438.88;5003007;28;20462;-82
2022/03/21 04:54:53;;;;;;;18.52;10.15;;;;;;;8.99;42.98;101446.00;5004158;28;20417;-81
2022/03/21 04:57:21;;;;;;;20.50;11.60;;;;;;;8.97;42.88;101447.88;4968725;28;20052;-80
2022/03/21 04:59:48;;;;;;;18.73;10.68;;;;;;;8.95;42.60;101434.69;4964137;28;20077;-81
2022/03/21 05:02:15;;;;;;;20.52;10.70;;;;;;;8.94;42.84;101445.41;4996086;28;20056;-80
2022/03/21 05:04:42;;;;;;;20.40;10.82;;;;;;;8.93;42.19;101443.66;4993579;28;20115;-80
2022/03/21 05:07:18;;;;;;;18.23;10.60;;;;;;;8.86;42.47;101451.97;5008599;28;20632;-81
2022/03/21 05:09:45;;;;;;;20.10;10.55;;;;;;;8.90;42.68;101453.53;5031558;28;20423;-80
2022/03/21 05:12:12;;;;;;;17.58;10.40;;;;;;;8.90;42.67;101452.63;4984360;28;20412;-80
2022/03/21 05:14:44;;;;;;;17.90;9.77;;;;;;;8.87;42.38;101464.25;4986424;28;20046;-80
2022/03/21 05:17:11;;;;;;;20.73;11.38;;;;;;;8.86;42.81;101459.91;4996683;28;20041;-81
2022/03/21 05:19:38;;;;;;;17.98;9.90;;;;;;;8.86;42.79;101467.88;4984007;28;20038;-80
2022/03/21 05:22:06;;;;;;;20.75;11.27;;;;;;;8.85;42.22;101462.63;4992185;28;20052;-80
2022/03/21 05:35:52;;;;;;;20.15;10.73;;;;;;;8.77;42.72;101465.72;4932722;28;20062;-82
2022/03/21 05:35:57;;;;;;;16.15;10.43;;;;;;;8.77;42.82;101464.84;4988918;28;20056;-80
2022/03/21 05:38:26;;;;;;;18.95;10.68;;;;;;;8.74;42.83;101465.03;4996472;28;20048;-80
2022/03/21 05:40:56;;;;;;;21.17;10.07;;;;;;;8.75;43.09;101464.09;4966358;28;20070;-80
2022/03/21 05:43:24;;;;;;;23.77;11.35;;;;;;;8.73;42.56;101461.53;4976967;28;20046;-80
2022/03/21 05:45:52;;;;;;;19.00;10.98;;;;;;;8.71;42.03;101467.84;4957417;28;20532;-80
2022/03/21 05:51:05;;;;;;;21.52;11.07;;;;;;;8.68;42.11;101487.41;4992114;28;20112;-81
2022/03/21 05:53:33;;;;;;;19.83;9.85;;;;;;;8.67;42.05;101488.34;4998159;28;20046;-80
2022/03/21 05:56:05;;;;;;;17.23;10.40;;;;;;;8.64;42.20;101485.84;4958636;28;20156;-80
2022/03/21 05:58:36;;;;;;;18.45;10.65;;;;;;;8.62;42.23;101493.03;4981019;28;20045;-80
2022/03/21 06:01:04;;;;;;;19.65;10.65;;;;;;;8.62;42.02;101491.22;4970981;28;20045;-80
2022/03/21 06:03:31;;;;;;;21.30;11.27;;;;;;;8.62;41.96;101487.72;4999465;28;20042;-80
2022/03/21 06:05:59;;;;;;;20.38;10.98;;;;;;;8.62;42.00;101490.38;4996824;28;20052;-80
2022/03/21 06:08:26;;;;;;;19.55;10.20;;;;;;;8.59;42.26;101491.41;4997604;28;20064;-80
2022/03/21 06:11:03;;;;;;;21.58;11.30;;;;;;;8.58;42.07;101497.63;4980472;28;20076;-80
2022/03/21 06:13:34;;;;;;;18.90;9.65;;;;;;;8.56;42.29;101506.59;4968756;28;20069;-80
2022/03/21 06:16:03;;;;;;;18.98;11.70;;;;;;;8.58;42.55;101507.38;4963507;28;20085;-80
2022/03/21 06:18:31;;;;;;;19.27;10.68;;;;;;;8.60;42.27;101514.31;4988061;28;20045;-80
2022/03/21 06:20:59;;;;;;;19.45;10.82;;;;;;;8.58;41.65;101513.53;4961736;28;20092;-81
2022/03/21 06:23:26;;;;;;;22.13;10.18;;;;;;;8.58;41.44;101517.97;4986488;28;20116;-80
2022/03/21 06:25:53;;;;;;;20.08;10.65;;;;;;;8.58;41.58;101518.81;4959254;28;20471;-80
2022/03/21 06:28:21;;;;;;;17.55;10.27;;;;;;;8.54;41.13;101521.72;4961226;28;20072;-80
2022/03/21 06:30:51;;;;;;;19.10;10.85;;;;;;;8.52;41.09;101521.78;5010697;28;20045;-80
2022/03/21 06:33:18;;;;;;;21.90;11.30;;;;;;;8.51;41.21;101516.59;4946203;28;20042;-80
2022/03/21 06:35:45;;;;;;;22.92;11.82;;;;;;;8.47;41.40;101530.00;4976086;28;20034;-80
2022/03/21 06:38:12;;;;;;;21.05;11.60;;;;;;;8.41;41.47;101524.16;4998816;28;20049;-80
2022/03/21 06:40:39;;;;;;;20.58;11.40;;;;;;;8.42;42.13;101526.72;4976929;28;20046;-80
2022/03/21 06:43:07;;;;;;;18.50;10.35;;;;;;;8.38;42.29;101526.94;5001869;28;20054;-80
2022/03/21 06:45:35;;;;;;;18.13;11.55;;;;;;;8.39;42.29;101529.50;4994228;28;20131;-80
2022/03/21 06:48:02;;;;;;;21.25;10.85;;;;;;;8.42;42.21;101533.78;4977888;28;20062;-81
2022/03/21 06:50:28;;;;;;;18.80;10.77;;;;;;;8.42;42.30;101532.03;4976085;28;20049;-80
2022/03/21 06:52:55;;;;;;;19.33;11.07;;;;;;;8.32;42.19;101527.22;4985072;28;20039;-80
2022/03/21 06:55:24;;;;;;;19.20;10.85;;;;;;;8.37;42.55;101534.03;4986505;28;20050;-80
2022/03/21 06:57:51;;;;;;;20.70;11.18;;;;;;;8.22;42.87;101527.72;4989298;28;20065;-82
2022/03/21 07:00:18;;;;;;;22.40;11.80;;;;;;;8.19;42.72;101530.53;4980176;28;20037;-80
2022/03/21 07:02:46;;;;;;;18.98;11.63;;;;;;;8.27;42.76;101535.44;5010178;28;20042;-81
2022/03/21 07:05:13;;;;;;;23.08;11.65;;;;;;;8.31;42.74;101536.13;4990494;28;20053;-80
2022/03/21 07:07:40;;;;;;;22.73;11.38;;;;;;;8.31;43.22;101534.31;5002822;28;20129;-80
2022/03/21 07:10:07;;;;;;;23.02;11.00;;;;;;;8.30;43.14;101532.63;5000748;28;20137;-80
2022/03/21 07:12:34;;;;;;;18.88;10.93;;;;;;;8.24;43.26;101539.09;5014534;28;20057;-82
2022/03/21 07:15:02;;;;;;;19.92;11.48;;;;;;;8.28;42.67;101537.13;4979320;28;20077;-80
2022/03/21 07:17:29;;;;;;;18.08;10.77;;;;;;;8.09;43.15;101537.22;5011816;28;20076;-80
2022/03/21 07:19:56;;;;;;;20.00;11.23;;;;;;;7.98;43.85;101536.91;4962474;28;20100;-81
2022/03/21 07:22:22;;;;;;;17.73;10.82;;;;;;;8.04;43.81;101542.75;4982206;28;20038;-80
2022/03/21 07:24:50;;;;;;;20.13;10.88;;;;;;;8.15;43.16;101547.50;4992093;28;20394;-80
2022/03/21 07:27:17;;;;;;;25.10;12.15;;;;;;;8.22;43.31;101555.97;4996750;28;20355;-81
2022/03/21 07:29:43;;;;;;;19.92;11.70;;;;;;;8.19;43.50;101551.72;4988232;28;20057;-80
2022/03/21 07:32:10;;;;;;;21.73;11.20;;;;;;;8.29;43.14;101554.72;5001469;28;20037;-80
2022/03/21 07:34:38;;;;;;;19.02;11.07;;;;;;;8.35;42.54;101554.41;4998267;28;20541;-80
2022/03/21 07:37:06;;;;;;;22.77;11.40;;;;;;;8.36;42.26;101556.13;4955642;28;20053;-80
2022/03/21 07:39:34;;;;;;;20.73;11.93;;;;;;;8.36;42.03;101558.75;4989533;28;20481;-80
2022/03/21 07:42:02;;;;;;;20.20;11.55;;;;;;;8.43;41.92;101556.69;4994505;28;20041;-80
2022/03/21 07:47:20;;;;;;;21.25;11.02;;;;;;;8.43;42.15;101549.59;5000110;28;20057;-80
2022/03/21 07:49:48;;;;;;;19.58;10.88;;;;;;;8.42;42.02;101552.31;5011462;28;20046;-81
2022/03/21 07:52:18;;;;;;;18.90;11.70;;;;;;;8.28;42.40;101555.66;4997000;28;20050;-81
2022/03/21 07:54:56;;;;;;;21.08;11.25;;;;;;;8.30;42.44;101547.66;5004169;28;20115;-81
2022/03/21 07:57:24;;;;;;;19.35;11.68;;;;;;;8.32;42.54;101557.22;4980577;28;20052;-81
2022/03/21 07:59:51;;;;;;;18.85;10.95;;;;;;;8.17;42.65;101558.00;4991025;28;20103;-81
2022/03/21 08:02:46;;;;;;;23.23;11.00;;;;;;;8.12;42.50;101565.31;4982254;28;20405;-80
2022/03/21 08:05:17;;;;;;;19.17;10.80;;;;;;;8.07;42.27;101568.19;4981947;28;20200;-81
2022/03/21 08:07:45;;;;;;;18.75;10.77;;;;;;;8.24;43.03;101569.97;5002067;28;20119;-81
2022/03/21 08:10:12;;;;;;;17.45;10.68;;;;;;;8.31;43.00;101565.22;4984650;28;20157;-81
2022/03/21 08:12:43;;;;;;;18.38;11.38;;;;;;;8.44;42.47;101567.19;5011120;28;20046;-81
2022/03/21 08:15:17;;;;;;;20.38;11.07;;;;;;;8.39;42.06;101561.28;4963272;28;20050;-81
2022/03/21 08:17:57;;;;;;;18.83;11.30;;;;;;;8.38;42.12;101564.84;4988729;28;20061;-81
2022/03/21 08:20:25;;;;;;;17.90;11.02;;;;;;;8.44;42.58;101555.75;5007969;28;20046;-81
2022/03/21 08:22:52;;;;;;;16.67;10.35;;;;;;;8.51;42.28;101562.44;4988864;28;20170;-80
2022/03/21 08:25:22;;;;;;;20.67;11.48;;;;;;;8.46;42.58;101556.53;5001411;28;20038;-80
2022/03/21 08:27:49;;;;;;;17.33;10.27;;;;;;;8.53;42.43;101560.56;4975455;28;20051;-80
2022/03/21 08:30:16;;;;;;;17.92;11.27;;;;;;;8.63;41.98;101561.81;4989747;28;20034;-81
2022/03/21 08:32:46;;;;;;;15.85;10.43;;;;;;;8.55;42.20;101558.72;4967265;28;22292;-80
2022/03/21 08:35:42;;;;;;;20.33;10.98;;;;;;;8.47;42.48;101561.75;4982273;28;20038;-80
2022/03/21 08:38:09;;;;;;;18.25;10.63;;;;;;;8.58;42.31;101553.25;4959515;28;20042;-80
2022/03/21 08:40:37;;;;;;;21.15;11.35;;;;;;;8.62;42.35;101565.38;4965813;28;20049;-81
2022/03/21 08:43:05;;;;;;;17.60;10.80;;;;;;;8.66;42.88;101559.00;4963157;28;20538;-80
2022/03/21 08:45:32;;;;;;;17.35;10.35;;;;;;;8.71;42.75;101563.19;5005235;28;20541;-79
2022/03/21 08:48:00;;;;;;;19.67;10.65;;;;;;;8.73;42.40;101556.00;4997117;28;20088;-80
2022/03/21 08:50:27;;;;;;;18.33;11.15;;;;;;;8.76;42.30;101561.16;4989537;28;20053;-81
2022/03/21 08:52:58;;;;;;;19.88;9.63;;;;;;;8.78;42.33;101560.13;4986214;28;20129;-80
2022/03/21 08:55:26;;;;;;;18.15;11.25;;;;;;;8.82;42.33;101556.38;4976707;28;20494;-80
2022/03/21 08:57:53;;;;;;;18.27;11.70;;;;;;;8.79;42.33;101561.84;4973298;28;20053;-81
2022/03/21 09:00:20;;;;;;;18.23;11.35;;;;;;;8.86;42.56;101555.28;4965873;28;20161;-81
2022/03/21 09:02:49;;;;;;;19.58;11.43;;;;;;;8.88;42.19;101555.22;4995941;28;20065;-81
2022/03/21 09:05:17;;;;;;;19.27;11.05;;;;;;;8.91;42.38;101558.53;4985725;28;20118;-80
2022/03/21 09:07:44;;;;;;;18.38;10.68;;;;;;;8.95;42.24;101559.22;5002655;28;20049;-81
2022/03/21 09:10:13;;;;;;;19.52;11.23;;;;;;;8.99;42.34;101557.28;4983094;28;20050;-80
2022/03/21 09:12:42;;;;;;;22.20;11.50;;;;;;;8.98;42.34;101545.81;5016979;28;20076;-81
2022/03/21 09:15:09;;;;;;;22.23;11.85;;;;;;;8.99;42.33;101544.03;4992300;28;20037;-80
2022/03/21 09:17:38;;;;;;;19.25;11.30;;;;;;;9.04;42.57;101541.97;4992261;28;20491;-81
2022/03/21 09:20:06;;;;;;;19.13;11.13;;;;;;;9.04;42.35;101536.69;4989859;28;20123;-81
2022/03/21 09:22:33;;;;;;;17.48;10.82;;;;;;;9.05;42.62;101536.56;5010171;28;20057;-82
2022/03/21 09:25:00;;;;;;;18.63;11.73;;;;;;;9.10;42.61;101538.97;5011922;28;20121;-79
2022/03/21 09:27:27;;;;;;;22.63;11.52;;;;;;;9.11;42.65;101536.25;4978121;28;20073;-79
2022/03/21 09:29:55;;;;;;;16.52;10.95;;;;;;;9.15;42.52;101538.72;4962191;28;20046;-79
2022/03/21 09:32:22;;;;;;;17.00;10.15;;;;;;;9.17;42.35;101531.56;4989450;28;22822;-80
2022/03/21 09:34:49;;;;;;;20.42;11.50;;;;;;;9.18;42.48;101528.81;4992536;28;20040;-80
2022/03/21 09:37:16;;;;;;;19.45;11.43;;;;;;;9.20;42.54;101518.97;4979946;28;20038;-80
2022/03/21 09:39:42;;;;;;;21.25;11.48;;;;;;;9.21;42.59;101523.34;4986209;28;20145;-80
2022/03/21 09:42:09;;;;;;;17.98;11.40;;;;;;;9.23;42.61;101525.91;5000424;28;20425;-80
2022/03/21 09:44:36;;;;;;;20.58;12.50;;;;;;;9.35;42.40;101517.25;5009873;28;20049;-80
2022/03/21 09:49:52;;;;;;;20.80;11.77;;;;;;;9.28;42.43;101522.03;4938405;28;20123;-80
2022/03/21 09:52:21;;;;;;;22.40;11.27;;;;;;;9.30;42.31;101514.03;5009907;28;20038;-80
2022/03/21 09:54:50;;;;;;;18.13;11.13;;;;;;;9.35;42.42;101518.13;5000543;28;20529;-80
2022/03/21 09:57:17;;;;;;;22.95;11.75;;;;;;;9.37;42.47;101510.09;4994924;28;20793;-80
2022/03/21 09:59:44;;;;;;;21.02;12.30;;;;;;;9.43;42.39;101511.53;4991576;28;20108;-80
2022/03/21 10:02:16;;;;;;;20.52;11.85;;;;;;;9.47;42.33;101511.28;4993164;28;20064;-79
2022/03/21 10:04:44;;;;;;;20.02;11.05;;;;;;;9.45;42.72;101507.84;4964640;28;20104;-79
2022/03/21 10:07:11;;;;;;;19.60;11.68;;;;;;;9.45;42.25;101513.16;4984433;28;20053;-79
2022/03/21 10:09:38;;;;;;;23.77;12.23;;;;;;;9.52;42.44;101506.56;4992523;28;20046;-80
2022/03/21 10:12:09;;;;;;;18.63;11.02;;;;;;;9.53;42.66;101510.06;5011251;28;20076;-80
2022/03/21 10:14:36;;;;;;;18.98;11.27;;;;;;;9.59;42.40;101512.34;4973087;28;20080;-79
2022/03/21 10:17:05;;;;;;;20.25;11.95;;;;;;;9.56;42.63;101505.44;5011713;28;20034;-79
2022/03/21 10:19:52;;;;;;;19.95;11.38;;;;;;;9.48;42.48;101504.16;5009835;28;20042;-80
2022/03/21 10:22:20;;;;;;;17.00;11.23;;;;;;;9.57;42.87;101496.53;4959023;28;20056;-80
2022/03/21 10:24:52;;;;;;;77.38;13.60;;;;;;;9.54;42.82;101499.38;4991687;28;20045;-80
2022/03/21 10:27:36;;;;;;;19.92;11.43;;;;;;;9.53;42.42;101496.81;4969791;28;20045;-79
2022/03/21 10:30:08;;;;;;;16.38;10.85;;;;;;;9.59;42.51;101495.59;4981377;28;20065;-80
2022/03/21 10:32:39;;;;;;;20.30;11.13;;;;;;;9.64;42.61;101502.34;5004550;28;20185;-79
2022/03/21 10:35:11;;;;;;;18.50;10.77;;;;;;;9.69;42.78;101494.09;4979105;28;20043;-79
2022/03/21 10:37:58;;;;;;;20.52;10.95;;;;;;;9.65;42.79;101496.09;4978447;28;20050;-80
2022/03/21 10:40:33;;;;;;;19.92;11.90;;;;;;;9.74;42.29;101492.91;4982915;28;20052;-80
2022/03/21 10:43:10;;;;;;;18.20;11.48;;;;;;;9.73;42.41;101487.69;4986926;28;20041;-79
2022/03/21 10:45:44;;;;;;;21.27;12.60;;;;;;;9.76;42.27;101488.34;4996244;28;20045;-79
2022/03/21 10:48:17;;;;;;;18.25;10.88;;;;;;;9.80;42.73;101486.41;5010007;28;20041;-80
2022/03/21 10:50:46;;;;;;;20.83;12.50;;;;;;;9.91;42.51;101491.06;4964090;28;20045;-80
2022/03/21 10:53:14;;;;;;;18.73;11.75;;;;;;;9.94;42.46;101489.06;4968132;28;20049;-80
2022/03/21 10:55:44;;;;;;;20.42;11.77;;;;;;;9.99;42.27;101487.00;5011161;28;20129;-80
2022/03/21 10:58:14;;;;;;;20.20;12.00;;;;;;;10.01;42.47;101478.94;4998119;28;20405;-80
2022/03/21 11:00:41;;;;;;;23.38;12.68;;;;;;;10.01;42.94;101486.91;4992197;28;20128;-80
2022/03/21 11:03:15;;;;;;;19.58;11.52;;;;;;;10.00;42.41;101482.56;4987082;28;20065;-80
2022/03/21 11:05:46;;;;;;;23.30;12.10;;;;;;;10.00;42.59;101482.56;5016791;28;20064;-80
2022/03/21 11:08:15;;;;;;;17.27;11.57;;;;;;;10.05;42.93;101471.66;4990528;28;20066;-80
2022/03/21 11:10:42;;;;;;;19.88;11.98;;;;;;;10.05;43.02;101474.31;4980289;28;20050;-79
2022/03/21 11:13:09;;;;;;;23.85;13.02;;;;;;;10.08;42.67;101477.66;5015016;28;20125;-80
2022/03/21 11:15:38;;;;;;;23.90;12.18;;;;;;;10.09;42.73;101471.38;4998385;28;20125;-80
2022/03/21 11:18:05;;;;;;;19.83;11.80;;;;;;;10.13;42.57;101474.72;4972264;28;20049;-80
2022/03/21 11:20:33;;;;;;;20.00;12.77;;;;;;;10.23;42.65;101467.91;4999947;28;20132;-80
2022/03/21 11:23:01;;;;;;;20.08;12.27;;;;;;;10.21;42.54;101464.47;5008533;28;20064;-80
2022/03/21 11:25:30;;;;;;;20.35;12.85;;;;;;;10.21;42.53;101460.03;4978241;28;20105;-81
2022/03/21 11:28:37;;;;;;;20.17;12.73;;;;;;;10.14;42.37;101461.34;4986539;28;20050;-79
2022/03/21 11:31:31;;;;;;;20.10;11.68;;;;;;;10.15;41.83;101459.53;4923586;28;20057;-80
2022/03/21 11:34:10;;;;;;;23.70;13.13;;;;;;;10.23;41.93;101462.59;4974864;28;20517;-81
2022/03/21 11:36:57;;;;;;;20.88;11.68;;;;;;;10.16;41.76;101462.09;4977925;28;20050;-79
2022/03/21 11:39:24;;;;;;;21.58;12.68;;;;;;;10.32;42.31;101455.88;4972726;28;20052;-80
2022/03/21 11:42:09;;;;;;;24.35;12.45;;;;;;;10.26;42.43;101453.59;4993360;28;20490;-80
2022/03/21 11:44:37;;;;;;;21.15;12.00;;;;;;;10.35;42.47;101455.69;4964101;28;20111;-79
2022/03/21 11:47:23;;;;;;;20.40;11.70;;;;;;;10.27;42.22;101457.94;4964107;28;20607;-80
2022/03/21 11:49:50;;;;;;;20.30;12.60;;;;;;;10.39;42.63;101446.59;4959110;28;20089;-80
2022/03/21 11:52:18;;;;;;;21.45;12.52;;;;;;;10.43;42.30;101441.00;5011402;28;20414;-79
2022/03/21 11:54:45;;;;;;;20.10;12.30;;;;;;;10.49;42.34;101439.78;4973865;28;20050;-80
2022/03/21 11:57:25;;;;;;;21.67;13.15;;;;;;;10.52;41.93;101439.56;4969464;28;20058;-80
2022/03/21 11:59:54;;;;;;;22.98;12.38;;;;;;;10.53;41.73;101438.66;4975692;28;20050;-80
2022/03/21 12:02:24;;;;;;;20.77;12.95;;;;;;;10.56;41.93;101432.28;5016902;28;20469;-79
2022/03/21 12:04:59;;;;;;;21.40;12.70;;;;;;;10.56;41.81;101432.28;4970041;28;20410;-79